createdAt,value
2022-11-12T00:03:26.726Z,7.97
2022-11-12T00:08:28.471Z,7.95
2022-11-12T00:13:30.721Z,7.92
2022-11-12T00:18:32.195Z,7.83
2022-11-12T00:23:33.603Z,7.70
2022-11-12T00:28:37.981Z,7.66
2022-11-12T00:33:41.596Z,7.61
2022-11-12T00:38:43.022Z,7.53
2022-11-12T00:43:44.457Z,7.52
2022-11-12T00:48:45.889Z,7.50
2022-11-12T00:53:49.102Z,7.43
2022-11-12T00:58:50.552Z,7.35
2022-11-12T01:03:52.651Z,7.32
2022-11-12T01:08:55.534Z,7.32
2022-11-12T01:14:00.456Z,7.26
2022-11-12T01:19:04.151Z,7.26
2022-11-12T01:24:05.934Z,7.25
2022-11-12T01:29:07.726Z,7.24
2022-11-12T01:34:09.823Z,7.20
2022-11-12T01:39:11.425Z,7.15
2022-11-12T01:44:17.489Z,7.09
2022-11-12T01:49:30.846Z,7.01
2022-11-12T01:54:32.342Z,6.98
2022-11-12T01:59:40.630Z,6.89
2022-11-12T02:04:43.515Z,6.87
2022-11-12T02:09:45.112Z,6.84
2022-11-12T02:14:46.518Z,6.83
2022-11-12T02:19:47.932Z,6.77
2022-11-12T02:24:49.331Z,6.81
2022-11-12T02:29:51.162Z,6.81
2022-11-12T02:34:52.560Z,6.86
2022-11-12T02:39:54.014Z,6.79
2022-11-12T02:44:56.551Z,6.78
2022-11-12T02:49:58.404Z,6.73
2022-11-12T02:54:59.807Z,6.69
2022-11-12T03:00:01.214Z,6.84
2022-11-12T03:05:02.668Z,7.01
2022-11-12T03:10:05.753Z,7.11
2022-11-12T03:15:07.464Z,7.31
2022-11-12T03:20:10.106Z,7.44
2022-11-12T03:25:11.528Z,7.45
2022-11-12T03:30:12.992Z,7.60
2022-11-12T03:35:14.512Z,7.76
2022-11-12T03:40:17.758Z,7.72
2022-11-12T03:45:21.408Z,7.77
2022-11-12T03:50:25.851Z,7.77
2022-11-12T03:55:28.835Z,7.60
2022-11-12T04:00:30.360Z,7.47
2022-11-12T04:05:50.596Z,7.49
2022-11-12T04:10:52.616Z,7.43
2022-11-12T04:16:14.969Z,7.37
2022-11-12T04:21:34.698Z,7.26
2022-11-12T04:26:36.104Z,7.13
2022-11-12T04:31:37.508Z,7.07
2022-11-12T04:36:38.906Z,6.97
2022-11-12T04:41:58.762Z,6.93
2022-11-12T04:47:00.158Z,6.78
2022-11-12T04:52:07.229Z,6.75
2022-11-12T04:57:08.654Z,6.64
2022-11-12T05:02:10.182Z,6.61
2022-11-12T05:07:12.019Z,6.60
2022-11-12T05:12:13.491Z,6.62
2022-11-12T05:17:15.259Z,6.60
2022-11-12T05:22:40.321Z,6.56
2022-11-12T05:27:38.299Z,6.53
2022-11-12T05:32:39.718Z,6.48
2022-11-12T05:37:41.121Z,6.48
2022-11-12T05:42:42.533Z,6.47
2022-11-12T05:47:43.930Z,6.52
2022-11-12T05:52:45.435Z,6.48
2022-11-12T05:57:46.838Z,6.47
2022-11-12T06:02:48.283Z,6.44
2022-11-12T06:07:49.706Z,6.36
2022-11-12T06:12:52.093Z,6.38
2022-11-12T06:17:54.422Z,6.39
2022-11-12T06:22:56.967Z,6.40
2022-11-12T06:27:58.385Z,6.58
2022-11-12T06:32:59.830Z,6.59
2022-11-12T06:38:01.242Z,6.67
2022-11-12T06:43:02.655Z,6.72
2022-11-12T06:48:04.115Z,6.84
2022-11-12T06:53:05.622Z,6.97
2022-11-12T06:58:07.094Z,7.17
2022-11-12T07:03:10.065Z,7.27
2022-11-12T07:08:11.627Z,7.36
2022-11-12T07:13:13.083Z,7.41
2022-11-12T07:18:14.795Z,7.51
2022-11-12T07:23:16.232Z,7.57
2022-11-12T07:28:17.619Z,7.67
2022-11-12T07:33:19.023Z,7.76
2022-11-12T07:38:20.430Z,7.81
2022-11-12T07:43:21.860Z,7.95
2022-11-12T07:48:23.420Z,8.13
2022-11-12T07:53:26.175Z,8.35
2022-11-12T07:58:30.567Z,8.61
2022-11-12T08:03:32.114Z,8.85
2022-11-12T08:08:33.601Z,9.08
2022-11-12T08:13:35.051Z,9.21
2022-11-12T08:18:36.576Z,9.39
2022-11-12T08:23:38.091Z,9.56
2022-11-12T08:28:40.213Z,9.69
2022-11-12T08:33:42.123Z,9.96
2022-11-12T08:38:43.778Z,10.08
2022-11-12T08:43:45.296Z,10.12
2022-11-12T08:48:46.726Z,10.51
2022-11-12T08:53:48.128Z,10.80
2022-11-12T08:58:49.527Z,10.98
2022-11-12T09:03:51.068Z,11.26
2022-11-12T09:08:52.527Z,11.11
2022-11-12T09:13:54.389Z,11.31
2022-11-12T09:18:55.866Z,11.49
2022-11-12T09:23:57.308Z,11.70
2022-11-12T09:28:58.733Z,11.67
2022-11-12T09:34:00.247Z,11.98
2022-11-12T09:39:01.760Z,11.95
2022-11-12T09:44:15.809Z,12.05
2022-11-12T09:49:26.055Z,12.13
2022-11-12T09:54:31.326Z,12.04
2022-11-12T09:59:38.098Z,11.95
2022-11-12T10:04:53.557Z,12.02
2022-11-12T10:10:15.014Z,12.27
2022-11-12T10:15:55.567Z,12.19
2022-11-12T10:21:08.986Z,11.99
2022-11-12T10:26:22.719Z,12.48
2022-11-12T10:31:24.190Z,12.70
2022-11-12T10:36:35.818Z,12.49
2022-11-12T10:41:37.288Z,12.61
2022-11-12T10:46:38.930Z,12.70
2022-11-12T10:51:40.763Z,12.61
2022-11-12T10:56:42.154Z,12.76
2022-11-12T11:01:46.108Z,12.90
2022-11-12T11:06:47.950Z,12.91
2022-11-12T11:11:53.591Z,13.01
2022-11-12T11:17:02.092Z,13.19
2022-11-12T11:22:36.549Z,13.09
2022-11-12T11:27:43.802Z,13.19
2022-11-12T11:33:03.750Z,13.37
2022-11-12T11:38:20.495Z,13.46
2022-11-12T11:43:40.919Z,13.51
2022-11-12T11:49:13.754Z,13.66
2022-11-12T11:54:33.521Z,13.99
2022-11-12T11:59:45.867Z,14.04
2022-11-12T12:05:17.642Z,14.15
2022-11-12T12:11:01.153Z,14.39
2022-11-12T12:16:20.013Z,13.93
2022-11-12T12:21:23.863Z,13.98
2022-11-12T12:26:52.492Z,13.91
2022-11-12T12:32:05.296Z,13.78
2022-11-12T12:37:21.046Z,13.95
2022-11-12T12:42:29.755Z,13.75
2022-11-12T12:47:38.320Z,13.95
2022-11-12T12:53:01.338Z,13.70
2022-11-12T12:58:02.825Z,13.68
2022-11-12T13:03:05.399Z,13.61
2022-11-12T13:08:34.718Z,13.55
2022-11-12T13:13:38.541Z,13.53
2022-11-12T13:18:40.144Z,13.73
2022-11-12T13:24:09.108Z,13.42
2022-11-12T13:29:29.163Z,13.45
2022-11-12T13:34:33.536Z,13.45
2022-11-12T13:39:36.341Z,13.50
2022-11-12T13:44:37.849Z,13.53
2022-11-12T13:49:39.426Z,13.42
2022-11-12T13:54:41.552Z,13.37
2022-11-12T13:59:43.013Z,13.17
2022-11-12T14:04:44.514Z,13.12
2022-11-12T14:09:52.417Z,13.05
2022-11-12T14:15:25.103Z,12.94
2022-11-12T14:20:36.237Z,12.86
2022-11-12T14:25:49.018Z,12.77
2022-11-12T14:30:50.467Z,12.61
2022-11-12T14:35:53.326Z,12.41
2022-11-12T14:40:58.178Z,12.12
2022-11-12T14:46:02.685Z,11.93
2022-11-12T14:51:09.361Z,11.78
2022-11-12T14:56:22.225Z,11.67
2022-11-12T15:06:58.481Z,11.38
2022-11-12T15:12:00.036Z,11.31
2022-11-12T15:17:03.334Z,11.19
2022-11-12T15:22:05.156Z,10.99
2022-11-12T15:27:42.441Z,10.95
2022-11-12T15:32:44.105Z,10.87
2022-11-12T15:37:45.579Z,10.81
2022-11-12T15:42:47.978Z,10.75
2022-11-12T15:47:49.395Z,10.70
2022-11-12T15:52:51.219Z,10.61
2022-11-12T15:57:53.043Z,10.53
2022-11-12T16:03:03.836Z,10.39
2022-11-12T16:08:05.548Z,10.36
2022-11-12T16:13:11.709Z,10.31
2022-11-12T16:18:13.311Z,10.28
2022-11-12T16:23:14.789Z,10.21
2022-11-12T16:28:18.520Z,10.18
2022-11-12T16:33:19.985Z,10.09
2022-11-12T16:38:21.834Z,10.04
2022-11-12T16:43:23.404Z,9.92
2022-11-12T16:48:25.117Z,9.84
2022-11-12T16:53:26.887Z,9.75
2022-11-12T16:58:28.748Z,9.67
2022-11-12T17:03:30.411Z,9.63
2022-11-12T17:08:34.048Z,9.60
2022-11-12T17:13:39.445Z,9.60
2022-11-12T17:18:40.974Z,9.67
2022-11-12T17:23:43.058Z,9.61
2022-11-12T17:28:45.268Z,9.61
2022-11-12T17:33:51.631Z,9.58
2022-11-12T17:38:55.201Z,9.50
2022-11-12T17:43:58.160Z,9.41
2022-11-12T17:48:59.592Z,9.31
2022-11-12T17:54:01.085Z,9.21
2022-11-12T17:59:03.648Z,9.16
2022-11-12T18:04:05.213Z,9.08
2022-11-12T18:09:11.695Z,9.02
2022-11-12T18:14:13.185Z,9.02
2022-11-12T18:19:15.679Z,9.04
2022-11-12T18:24:17.153Z,9.08
2022-11-12T18:29:18.638Z,9.13
2022-11-12T18:34:20.044Z,9.20
2022-11-12T18:39:21.533Z,9.29
2022-11-12T18:44:26.124Z,9.34
2022-11-12T18:49:27.759Z,9.44
2022-11-12T18:54:30.310Z,9.54
2022-11-12T18:59:32.593Z,9.58
2022-11-12T19:04:34.004Z,9.54
2022-11-12T19:09:35.423Z,9.51
2022-11-12T19:14:36.863Z,9.33
2022-11-12T19:19:38.451Z,9.24
2022-11-12T19:24:39.863Z,9.33
2022-11-12T19:29:41.311Z,9.40
2022-11-12T19:34:42.738Z,9.47
2022-11-12T19:39:44.208Z,9.52
2022-11-12T19:44:45.709Z,9.57
2022-11-12T19:49:47.168Z,9.60
2022-11-12T19:54:48.654Z,9.61
2022-11-12T19:59:50.123Z,9.65
2022-11-12T20:04:51.646Z,9.67
2022-11-12T20:09:57.983Z,9.71
2022-11-12T20:15:02.065Z,9.71
2022-11-12T20:20:04.412Z,9.73
2022-11-12T20:25:06.247Z,9.73
2022-11-12T20:30:08.376Z,9.68
2022-11-12T20:35:17.743Z,9.71
2022-11-12T20:40:22.417Z,9.67
2022-11-12T20:45:25.050Z,9.73
2022-11-12T20:50:26.480Z,9.76
2022-11-12T20:55:27.928Z,9.79
2022-11-12T21:00:29.356Z,9.82
2022-11-12T21:05:31.144Z,9.85
2022-11-12T21:10:32.563Z,9.85
2022-11-12T21:15:33.973Z,9.77
2022-11-12T21:20:35.384Z,9.79
2022-11-12T21:25:38.346Z,9.84
2022-11-12T21:30:40.202Z,9.84
2022-11-12T21:35:41.669Z,9.80
2022-11-12T21:40:43.089Z,9.85
2022-11-12T21:45:47.923Z,9.83
2022-11-12T21:50:49.348Z,9.84
2022-11-12T21:55:50.783Z,9.86
2022-11-12T22:00:52.190Z,9.89
2022-11-12T22:05:53.588Z,9.80
2022-11-12T22:11:02.562Z,9.78
2022-11-12T22:16:12.207Z,9.82
2022-11-12T22:21:17.248Z,9.75
2022-11-12T22:26:21.883Z,9.80
2022-11-12T22:31:27.060Z,9.71
2022-11-12T22:36:30.790Z,9.74
2022-11-12T22:41:32.607Z,9.72
2022-11-12T22:46:35.337Z,9.51
2022-11-12T22:51:36.743Z,9.55
2022-11-12T22:56:39.749Z,9.59
2022-11-12T23:01:41.296Z,9.67
2022-11-12T23:06:42.834Z,9.73
2022-11-12T23:11:44.312Z,9.74
2022-11-12T23:16:45.760Z,9.73
2022-11-12T23:21:47.201Z,9.67
2022-11-12T23:26:48.682Z,9.65
2022-11-12T23:31:50.101Z,9.75
2022-11-12T23:36:51.506Z,9.77
2022-11-12T23:41:52.955Z,9.67
2022-11-12T23:46:54.376Z,9.72
2022-11-12T23:51:55.934Z,9.69
2022-11-12T23:56:57.356Z,9.61
